createdAt,value
2023-03-22T00:00:50.505Z,11.45
2023-03-22T00:05:57.563Z,11.59
2023-03-22T00:11:00.488Z,11.06
2023-03-22T00:16:01.966Z,10.77
2023-03-22T00:21:03.952Z,10.83
2023-03-22T00:26:07.520Z,10.65
2023-03-22T00:31:10.580Z,10.51
2023-03-22T00:36:12.780Z,10.39
2023-03-22T00:41:17.906Z,10.74
2023-03-22T00:46:20.811Z,11.05
2023-03-22T00:51:22.311Z,11.13
2023-03-22T00:56:25.170Z,11.28
2023-03-22T01:01:26.689Z,11.30
2023-03-22T01:06:28.232Z,10.85
2023-03-22T01:11:31.116Z,10.96
2023-03-22T01:16:32.723Z,11.01
2023-03-22T01:21:34.310Z,10.98
2023-03-22T01:26:37.129Z,10.81
2023-03-22T01:31:38.745Z,10.76
2023-03-22T01:36:40.227Z,10.52
2023-03-22T01:41:43.213Z,10.40
2023-03-22T01:46:46.258Z,10.10
2023-03-22T01:51:51.169Z,10.13
2023-03-22T01:56:54.226Z,9.78
2023-03-22T02:01:55.760Z,9.97
2023-03-22T02:06:58.964Z,9.93
2023-03-22T02:12:10.956Z,10.06
2023-03-22T02:17:23.284Z,10.39
2023-03-22T02:22:54.631Z,10.53
2023-03-22T02:28:21.489Z,10.55
2023-03-22T02:33:57.180Z,10.52
2023-03-22T02:39:08.180Z,10.39
2023-03-22T02:44:17.456Z,10.44
2023-03-22T02:49:26.753Z,10.48
2023-03-22T02:54:35.969Z,10.45
2023-03-22T02:59:40.189Z,10.38
2023-03-22T03:04:46.126Z,10.15
2023-03-22T03:09:50.216Z,10.01
2023-03-22T03:14:52.169Z,9.88
2023-03-22T03:20:08.338Z,9.71
2023-03-22T03:25:21.893Z,9.58
2023-03-22T03:30:29.457Z,9.50
2023-03-22T03:35:36.364Z,9.62
2023-03-22T03:40:41.797Z,9.55
2023-03-22T03:45:44.289Z,9.47
2023-03-22T03:50:47.939Z,9.52
2023-03-22T03:55:50.822Z,9.63
2023-03-22T04:00:52.295Z,9.12
2023-03-22T04:05:53.781Z,8.79
2023-03-22T04:10:56.561Z,9.02
2023-03-22T04:15:58.077Z,8.80
2023-03-22T04:20:59.615Z,8.92
2023-03-22T04:26:02.432Z,8.76
2023-03-22T04:31:03.978Z,9.06
2023-03-22T04:36:06.783Z,8.98
2023-03-22T04:41:10.315Z,9.03
2023-03-22T04:46:11.933Z,8.98
2023-03-22T04:51:13.441Z,9.03
2023-03-22T04:56:16.452Z,9.06
2023-03-22T05:01:18.603Z,8.96
2023-03-22T05:06:20.215Z,8.98
2023-03-22T05:11:23.141Z,8.97
2023-03-22T05:16:25.167Z,8.89
2023-03-22T05:21:26.654Z,8.95
2023-03-22T05:26:29.482Z,8.75
2023-03-22T05:31:31.062Z,8.64
2023-03-22T05:36:32.733Z,8.80
2023-03-22T05:41:36.818Z,8.97
2023-03-22T05:46:38.603Z,8.77
2023-03-22T05:51:40.091Z,8.53
2023-03-22T05:56:42.983Z,8.55
2023-03-22T06:01:44.485Z,8.45
2023-03-22T06:06:45.915Z,8.61
2023-03-22T06:11:48.714Z,8.89
2023-03-22T06:16:50.219Z,9.30
2023-03-22T06:21:51.821Z,9.42
2023-03-22T06:26:54.670Z,9.35
2023-03-22T06:31:56.236Z,9.38
2023-03-22T06:36:57.746Z,9.49
2023-03-22T06:42:00.700Z,9.70
2023-03-22T06:47:02.628Z,9.95
2023-03-22T06:52:04.509Z,10.08
2023-03-22T06:57:07.285Z,10.36
2023-03-22T07:02:11.560Z,10.38
2023-03-22T07:07:13.087Z,10.43
2023-03-22T07:12:16.076Z,10.77
2023-03-22T07:17:17.709Z,10.86
2023-03-22T07:22:19.198Z,11.04
2023-03-22T07:27:22.001Z,11.11
2023-03-22T07:32:23.561Z,11.35
2023-03-22T07:37:25.182Z,11.49
2023-03-22T07:42:28.070Z,10.86
2023-03-22T07:47:40.343Z,11.41
2023-03-22T07:52:42.775Z,11.85
2023-03-22T07:57:45.930Z,11.86
2023-03-22T08:02:47.426Z,12.43
2023-03-22T08:07:49.173Z,12.63
2023-03-22T08:12:52.019Z,12.89
2023-03-22T08:17:53.672Z,13.11
2023-03-22T08:22:55.192Z,12.83
2023-03-22T08:27:58.056Z,13.65
2023-03-22T08:32:59.584Z,14.06
2023-03-22T08:38:01.901Z,14.32
2023-03-22T08:43:04.728Z,14.91
2023-03-22T08:48:06.780Z,14.98
2023-03-22T08:53:08.249Z,15.42
2023-03-22T08:58:11.719Z,15.54
2023-03-22T09:03:13.525Z,15.11
2023-03-22T09:08:19.133Z,15.17
2023-03-22T09:13:22.737Z,14.95
2023-03-22T09:18:25.217Z,15.28
2023-03-22T09:23:26.679Z,15.84
2023-03-22T09:28:30.503Z,15.44
2023-03-22T09:33:32.169Z,15.67
2023-03-22T09:38:34.004Z,15.33
2023-03-22T09:43:42.204Z,15.15
2023-03-22T09:48:48.240Z,15.64
2023-03-22T09:53:50.055Z,15.15
2023-03-22T09:59:02.216Z,15.47
2023-03-22T10:04:20.877Z,15.75
2023-03-22T10:09:29.324Z,15.75
2023-03-22T10:14:38.111Z,15.66
2023-03-22T10:19:48.758Z,15.34
2023-03-22T10:24:52.075Z,15.79
2023-03-22T10:29:59.495Z,15.76
2023-03-22T10:35:01.027Z,15.95
2023-03-22T10:40:04.485Z,16.38
2023-03-22T10:45:12.755Z,15.93
2023-03-22T10:50:19.360Z,16.46
2023-03-22T10:55:20.999Z,16.55
2023-03-22T11:00:24.436Z,16.57
2023-03-22T11:05:28.312Z,15.86
2023-03-22T11:10:31.274Z,16.04
2023-03-22T11:15:37.234Z,16.69
2023-03-22T11:20:40.984Z,16.76
2023-03-22T11:25:46.764Z,16.79
2023-03-22T11:31:01.971Z,16.69
2023-03-22T11:36:14.597Z,16.36
2023-03-22T11:41:22.891Z,16.35
2023-03-22T11:46:25.817Z,16.56
2023-03-22T11:51:29.519Z,16.70
2023-03-22T11:56:31.225Z,16.61
2023-03-22T12:01:42.733Z,16.71
2023-03-22T12:06:44.493Z,16.77
2023-03-22T12:11:49.913Z,16.41
2023-03-22T12:16:58.170Z,16.72
2023-03-22T12:22:00.478Z,16.49
2023-03-22T12:27:07.212Z,16.79
2023-03-22T12:32:17.657Z,16.51
2023-03-22T12:37:23.999Z,16.33
2023-03-22T12:42:34.707Z,17.01
2023-03-22T12:47:41.502Z,16.58
2023-03-22T12:52:46.703Z,16.65
2023-03-22T12:57:48.690Z,17.55
2023-03-22T13:02:58.699Z,17.50
2023-03-22T13:08:00.476Z,17.40
2023-03-22T13:13:31.526Z,16.74
2023-03-22T13:18:57.539Z,17.24
2023-03-22T13:24:18.804Z,17.53
2023-03-22T13:29:22.876Z,17.43
2023-03-22T13:34:37.703Z,16.99
2023-03-22T13:39:40.215Z,16.84
2023-03-22T13:44:42.172Z,16.89
2023-03-22T13:49:48.667Z,16.90
2023-03-22T13:54:52.578Z,16.87
2023-03-22T14:00:11.220Z,16.86
2023-03-22T14:05:20.044Z,17.51
2023-03-22T14:10:26.420Z,17.28
2023-03-22T14:15:32.445Z,17.82
2023-03-22T14:20:37.778Z,17.44
